createdAt,value
2022-08-10T00:00:09.000Z,11.722222222222221
2022-08-10T00:00:36.000Z,11.722222222222221
2022-08-10T00:01:11.000Z,11.722222222222221
2022-08-10T00:01:41.000Z,11.61111111111111
2022-08-10T00:02:11.000Z,11.61111111111111
2022-08-10T00:02:27.000Z,11.777777777777779
2022-08-10T00:02:46.000Z,11.777777777777779
2022-08-10T00:03:16.000Z,11.777777777777779
2022-08-10T00:03:44.000Z,11.777777777777779
2022-08-10T00:04:06.000Z,11.722222222222221
2022-08-10T00:04:36.000Z,11.722222222222221
2022-08-10T00:05:11.000Z,11.722222222222221
2022-08-10T00:05:41.000Z,11.61111111111111
2022-08-10T00:06:11.000Z,11.61111111111111
2022-08-10T00:06:46.000Z,11.777777777777779
2022-08-10T00:07:16.000Z,11.722222222222221
2022-08-10T00:07:44.000Z,11.722222222222221
2022-08-10T00:08:07.000Z,11.722222222222221
2022-08-10T00:08:36.000Z,11.61111111111111
2022-08-10T00:09:11.000Z,11.61111111111111
2022-08-10T00:09:41.000Z,11.61111111111111
2022-08-10T00:10:11.000Z,11.61111111111111
2022-08-10T00:10:46.000Z,11.61111111111111
2022-08-10T00:11:16.000Z,11.61111111111111
2022-08-10T00:11:44.000Z,11.61111111111111
2022-08-10T00:12:06.000Z,11.777777777777779
2022-08-10T00:12:36.000Z,11.777777777777779
2022-08-10T00:13:11.000Z,11.777777777777779
2022-08-10T00:13:41.000Z,11.777777777777779
2022-08-10T00:14:11.000Z,11.722222222222221
2022-08-10T00:14:46.000Z,11.722222222222221
2022-08-10T00:15:26.000Z,11.777777777777779
2022-08-10T00:15:52.000Z,11.61111111111111
2022-08-10T00:16:19.000Z,11.61111111111111
2022-08-10T00:16:46.000Z,11.61111111111111
2022-08-10T00:17:11.000Z,11.61111111111111
2022-08-10T00:17:39.000Z,11.61111111111111
2022-08-10T00:18:02.000Z,11.61111111111111
2022-08-10T00:18:29.000Z,11.722222222222221
2022-08-10T00:19:02.000Z,11.722222222222221
2022-08-10T00:19:36.000Z,11.722222222222221
2022-08-10T00:19:52.000Z,11.722222222222221
2022-08-10T00:20:19.000Z,11.722222222222221
2022-08-10T00:20:36.000Z,11.722222222222221
2022-08-10T00:21:11.000Z,11.722222222222221
2022-08-10T00:21:41.000Z,11.88888888888889
2022-08-10T00:22:11.000Z,11.777777777777779
2022-08-10T00:22:46.000Z,11.777777777777779
2022-08-10T00:23:16.000Z,11.777777777777779
2022-08-10T00:23:44.000Z,11.777777777777779
2022-08-10T00:24:06.000Z,11.777777777777779
2022-08-10T00:24:36.000Z,11.777777777777779
2022-08-10T00:25:11.000Z,11.777777777777779
2022-08-10T00:25:41.000Z,11.777777777777779
2022-08-10T00:26:11.000Z,11.722222222222221
2022-08-10T00:26:46.000Z,11.722222222222221
2022-08-10T00:27:19.000Z,11.722222222222221
2022-08-10T00:27:44.000Z,11.722222222222221
2022-08-10T00:28:03.000Z,11.88888888888889
2022-08-10T00:28:36.000Z,11.777777777777779
2022-08-10T00:29:11.000Z,11.777777777777779
2022-08-10T00:29:41.000Z,11.777777777777779
2022-08-10T00:30:11.000Z,11.722222222222221
2022-08-10T00:30:46.000Z,11.722222222222221
2022-08-10T00:31:16.000Z,11.722222222222221
2022-08-10T00:31:44.000Z,11.777777777777779
2022-08-10T00:32:06.000Z,11.777777777777779
2022-08-10T00:32:36.000Z,11.777777777777779
2022-08-10T00:33:12.000Z,11.777777777777779
2022-08-10T00:33:41.000Z,11.777777777777779
2022-08-10T00:34:11.000Z,11.61111111111111
2022-08-10T00:34:27.000Z,11.61111111111111
2022-08-10T00:34:56.000Z,11.61111111111111
2022-08-10T00:35:18.000Z,11.722222222222221
2022-08-10T00:35:46.000Z,11.722222222222221
2022-08-10T00:36:08.000Z,11.722222222222221
2022-08-10T00:36:36.000Z,11.722222222222221
2022-08-10T00:37:11.000Z,11.722222222222221
2022-08-10T00:37:41.000Z,11.722222222222221
2022-08-10T00:38:11.000Z,11.88888888888889
2022-08-10T00:38:46.000Z,11.777777777777779
2022-08-10T00:39:16.000Z,11.61111111111111
2022-08-10T00:39:44.000Z,11.777777777777779
2022-08-10T00:40:06.000Z,11.777777777777779
2022-08-10T00:40:36.000Z,11.777777777777779
2022-08-10T00:41:11.000Z,11.722222222222221
2022-08-10T00:41:41.000Z,11.722222222222221
2022-08-10T00:42:11.000Z,11.722222222222221
2022-08-10T00:42:27.000Z,11.61111111111111
2022-08-10T00:42:46.000Z,11.61111111111111
2022-08-10T00:43:26.000Z,11.777777777777779
2022-08-10T00:43:44.000Z,11.777777777777779
2022-08-10T00:44:06.000Z,11.777777777777779
2022-08-10T00:44:36.000Z,11.777777777777779
2022-08-10T00:45:11.000Z,11.777777777777779
2022-08-10T00:45:41.000Z,11.777777777777779
2022-08-10T00:46:11.000Z,11.777777777777779
2022-08-10T00:46:26.000Z,11.777777777777779
2022-08-10T00:46:46.000Z,11.777777777777779
2022-08-10T00:47:16.000Z,11.88888888888889
2022-08-10T00:47:44.000Z,11.88888888888889
2022-08-10T00:48:06.000Z,11.88888888888889
2022-08-10T00:48:36.000Z,11.88888888888889
2022-08-10T00:49:11.000Z,11.777777777777779
2022-08-10T00:49:41.000Z,11.777777777777779
2022-08-10T00:50:11.000Z,11.777777777777779
2022-08-10T00:50:29.000Z,11.777777777777779
2022-08-10T00:50:56.000Z,11.88888888888889
2022-08-10T00:51:19.000Z,11.88888888888889
2022-08-10T00:52:03.000Z,11.777777777777779
2022-08-10T00:52:29.000Z,11.777777777777779
2022-08-10T00:53:07.000Z,11.777777777777779
2022-08-10T00:53:26.000Z,11.722222222222221
2022-08-10T00:53:51.000Z,11.722222222222221
2022-08-10T00:54:16.000Z,11.722222222222221
2022-08-10T00:54:16.000Z,11.722222222222221
2022-08-10T00:54:16.000Z,11.722222222222221
2022-08-10T00:54:46.000Z,11.88888888888889
2022-08-10T00:54:46.000Z,11.88888888888889
2022-08-10T00:54:46.000Z,11.88888888888889
2022-08-10T00:55:16.000Z,11.88888888888889
2022-08-10T00:55:16.000Z,11.88888888888889
2022-08-10T00:55:16.000Z,11.88888888888889
2022-08-10T00:55:44.000Z,11.88888888888889
2022-08-10T00:55:44.000Z,11.88888888888889
2022-08-10T00:55:44.000Z,11.88888888888889
2022-08-10T00:56:06.000Z,11.777777777777779
2022-08-10T00:56:06.000Z,11.777777777777779
2022-08-10T00:56:06.000Z,11.777777777777779
2022-08-10T00:56:36.000Z,11.777777777777779
2022-08-10T00:56:36.000Z,11.777777777777779
2022-08-10T00:56:52.000Z,11.777777777777779
2022-08-10T00:57:26.000Z,11.722222222222221
2022-08-10T00:57:48.000Z,11.722222222222221
2022-08-10T00:58:11.000Z,11.722222222222221
2022-08-10T00:58:46.000Z,11.722222222222221
2022-08-10T00:59:16.000Z,11.61111111111111
2022-08-10T00:59:44.000Z,11.61111111111111
2022-08-10T01:00:16.000Z,11.61111111111111
2022-08-10T01:00:46.000Z,11.61111111111111
2022-08-10T01:01:11.000Z,11.777777777777779
2022-08-10T01:01:39.000Z,11.722222222222221
2022-08-10T01:02:11.000Z,11.722222222222221
2022-08-10T01:02:11.000Z,11.722222222222221
2022-08-10T01:02:11.000Z,11.722222222222221
2022-08-10T01:02:46.000Z,11.722222222222221
2022-08-10T01:02:46.000Z,11.722222222222221
2022-08-10T01:02:46.000Z,11.722222222222221
2022-08-10T01:03:16.000Z,11.88888888888889
2022-08-10T01:03:16.000Z,11.88888888888889
2022-08-10T01:03:16.000Z,11.88888888888889
2022-08-10T01:03:44.000Z,11.88888888888889
2022-08-10T01:03:44.000Z,11.88888888888889
2022-08-10T01:03:44.000Z,11.88888888888889
2022-08-10T01:04:06.000Z,11.88888888888889
2022-08-10T01:04:06.000Z,11.88888888888889
2022-08-10T01:04:06.000Z,11.88888888888889
2022-08-10T01:04:36.000Z,11.88888888888889
2022-08-10T01:04:36.000Z,11.88888888888889
2022-08-10T01:04:52.000Z,11.722222222222221
2022-08-10T01:05:26.000Z,11.722222222222221
2022-08-10T01:05:48.000Z,11.88888888888889
2022-08-10T01:06:16.000Z,11.88888888888889
2022-08-10T01:06:46.000Z,11.88888888888889
2022-08-10T01:07:16.000Z,11.88888888888889
2022-08-10T01:07:44.000Z,11.88888888888889
2022-08-10T01:08:06.000Z,11.88888888888889
2022-08-10T01:08:36.000Z,11.88888888888889
2022-08-10T01:08:52.000Z,11.88888888888889
2022-08-10T01:09:22.000Z,11.88888888888889
2022-08-10T01:09:51.000Z,11.88888888888889
2022-08-10T01:09:51.000Z,11.88888888888889
2022-08-10T01:09:51.000Z,11.88888888888889
2022-08-10T01:10:13.000Z,11.777777777777779
2022-08-10T01:10:13.000Z,11.777777777777779
2022-08-10T01:10:13.000Z,11.777777777777779
2022-08-10T01:10:42.000Z,11.777777777777779
2022-08-10T01:10:42.000Z,11.777777777777779
2022-08-10T01:10:42.000Z,11.777777777777779
2022-08-10T01:11:11.000Z,11.777777777777779
2022-08-10T01:11:11.000Z,11.777777777777779
2022-08-10T01:11:11.000Z,11.777777777777779
2022-08-10T01:11:36.000Z,11.777777777777779
2022-08-10T01:11:36.000Z,11.777777777777779
2022-08-10T01:11:36.000Z,11.777777777777779
2022-08-10T01:11:52.000Z,11.777777777777779
2022-08-10T01:11:52.000Z,11.777777777777779
2022-08-10T01:12:31.000Z,11.777777777777779
2022-08-10T01:13:11.000Z,11.88888888888889
2022-08-10T01:13:51.000Z,11.88888888888889
2022-08-10T01:14:14.000Z,11.722222222222221
2022-08-10T01:14:42.000Z,11.88888888888889
2022-08-10T01:15:11.000Z,11.722222222222221
2022-08-10T01:15:36.000Z,11.88888888888889
2022-08-10T01:16:06.000Z,11.88888888888889
2022-08-10T01:16:36.000Z,11.88888888888889
2022-08-10T01:17:11.000Z,11.88888888888889
2022-08-10T01:17:41.000Z,11.88888888888889
2022-08-10T01:18:16.000Z,11.722222222222221
2022-08-10T01:18:46.000Z,11.777777777777779
2022-08-10T01:19:16.000Z,11.88888888888889
2022-08-10T01:19:44.000Z,11.88888888888889
2022-08-10T01:20:06.000Z,11.722222222222221
2022-08-10T01:20:36.000Z,11.722222222222221
2022-08-10T01:21:11.000Z,11.88888888888889
2022-08-10T01:21:42.000Z,11.88888888888889
2022-08-10T01:22:16.000Z,11.722222222222221
2022-08-10T01:22:56.000Z,11.777777777777779
2022-08-10T01:23:20.000Z,11.88888888888889
2022-08-10T01:23:46.000Z,11.88888888888889
2022-08-10T01:24:08.000Z,12.0
2022-08-10T01:24:36.000Z,12.0
2022-08-10T01:25:11.000Z,12.0
2022-08-10T01:25:41.000Z,12.0
2022-08-10T01:26:11.000Z,12.0
2022-08-10T01:26:46.000Z,12.0
2022-08-10T01:27:16.000Z,11.88888888888889
2022-08-10T01:27:44.000Z,11.88888888888889
2022-08-10T01:28:06.000Z,11.88888888888889
2022-08-10T01:28:36.000Z,11.88888888888889
2022-08-10T01:29:11.000Z,11.88888888888889
2022-08-10T01:29:41.000Z,11.88888888888889
2022-08-10T01:30:11.000Z,11.88888888888889
2022-08-10T01:30:46.000Z,11.88888888888889
2022-08-10T01:31:19.000Z,11.88888888888889
2022-08-10T01:31:44.000Z,11.88888888888889
2022-08-10T01:32:02.000Z,11.88888888888889
2022-08-10T01:32:29.000Z,11.88888888888889
2022-08-10T01:33:01.000Z,11.88888888888889
2022-08-10T01:33:27.000Z,11.88888888888889
2022-08-10T01:33:51.000Z,11.88888888888889
2022-08-10T01:34:14.000Z,11.777777777777779
2022-08-10T01:34:46.000Z,11.777777777777779
2022-08-10T01:35:16.000Z,11.777777777777779
2022-08-10T01:35:44.000Z,11.777777777777779
2022-08-10T01:36:06.000Z,11.88888888888889
2022-08-10T01:36:36.000Z,11.88888888888889
2022-08-10T01:37:11.000Z,11.88888888888889
2022-08-10T01:37:41.000Z,11.88888888888889
2022-08-10T01:38:11.000Z,11.722222222222221
2022-08-10T01:38:26.000Z,11.777777777777779
2022-08-10T01:38:46.000Z,11.88888888888889
2022-08-10T01:39:16.000Z,12.0
2022-08-10T01:39:44.000Z,12.0
2022-08-10T01:40:06.000Z,12.0
2022-08-10T01:40:36.000Z,12.0
2022-08-10T01:41:11.000Z,12.0
2022-08-10T01:41:41.000Z,11.88888888888889
2022-08-10T01:42:11.000Z,11.88888888888889
2022-08-10T01:42:46.000Z,11.88888888888889
2022-08-10T01:43:16.000Z,12.0
2022-08-10T01:43:44.000Z,12.0
2022-08-10T01:44:06.000Z,12.0
2022-08-10T01:44:46.000Z,12.0
2022-08-10T01:45:11.000Z,12.0
2022-08-10T01:45:41.000Z,12.0
2022-08-10T01:46:11.000Z,12.0
2022-08-10T01:46:26.000Z,12.0
2022-08-10T01:46:46.000Z,12.0
2022-08-10T01:47:16.000Z,12.0
2022-08-10T01:47:51.000Z,12.0
2022-08-10T01:48:18.000Z,12.0
2022-08-10T01:48:36.000Z,12.0
2022-08-10T01:49:11.000Z,12.0
2022-08-10T01:49:41.000Z,12.0
2022-08-10T01:50:11.000Z,12.0
2022-08-10T01:50:26.000Z,12.0
2022-08-10T01:50:46.000Z,12.0
2022-08-10T01:51:31.000Z,12.0
2022-08-10T01:51:51.000Z,12.0
2022-08-10T01:52:19.000Z,12.0
2022-08-10T01:52:44.000Z,12.0
2022-08-10T01:53:11.000Z,12.0
2022-08-10T01:53:41.000Z,12.0
2022-08-10T01:54:11.000Z,12.0
2022-08-10T01:54:26.000Z,12.0
2022-08-10T01:54:46.000Z,12.0
2022-08-10T01:55:19.000Z,11.88888888888889
2022-08-10T01:55:44.000Z,11.88888888888889
2022-08-10T01:56:02.000Z,11.88888888888889
2022-08-10T01:56:29.000Z,12.111111111111109
2022-08-10T01:57:07.000Z,12.0
2022-08-10T01:57:26.000Z,12.0
2022-08-10T01:57:51.000Z,12.0
2022-08-10T01:58:13.000Z,11.777777777777779
2022-08-10T01:58:42.000Z,12.111111111111109
2022-08-10T01:59:11.000Z,12.111111111111109
2022-08-10T01:59:35.000Z,11.88888888888889
2022-08-10T02:00:02.000Z,11.88888888888889
2022-08-10T02:00:29.000Z,11.88888888888889
2022-08-10T02:01:07.000Z,11.88888888888889
2022-08-10T02:01:51.000Z,12.0
2022-08-10T02:02:14.000Z,12.0
2022-08-10T02:02:42.000Z,12.0
2022-08-10T02:03:19.000Z,12.0
2022-08-10T02:03:44.000Z,12.0
2022-08-10T02:04:06.000Z,12.0
2022-08-10T02:04:36.000Z,12.111111111111109
2022-08-10T02:05:11.000Z,12.111111111111109
2022-08-10T02:05:41.000Z,12.111111111111109
2022-08-10T02:06:11.000Z,11.88888888888889
2022-08-10T02:06:46.000Z,12.111111111111109
2022-08-10T02:07:16.000Z,11.88888888888889
2022-08-10T02:07:44.000Z,11.88888888888889
2022-08-10T02:08:06.000Z,11.88888888888889
2022-08-10T02:08:36.000Z,12.0
2022-08-10T02:09:11.000Z,12.0
2022-08-10T02:09:41.000Z,12.0
2022-08-10T02:10:26.000Z,12.222222222222221
2022-08-10T02:10:46.000Z,12.0
2022-08-10T02:11:16.000Z,12.0
2022-08-10T02:11:44.000Z,12.111111111111109
2022-08-10T02:12:06.000Z,12.111111111111109
2022-08-10T02:12:36.000Z,12.111111111111109
2022-08-10T02:13:11.000Z,12.111111111111109
2022-08-10T02:13:41.000Z,12.111111111111109
2022-08-10T02:14:11.000Z,12.0
2022-08-10T02:14:46.000Z,12.0
2022-08-10T02:15:16.000Z,12.0
2022-08-10T02:15:16.000Z,12.0
2022-08-10T02:15:44.000Z,12.0
2022-08-10T02:15:44.000Z,12.0
2022-08-10T02:16:06.000Z,12.0
2022-08-10T02:16:06.000Z,12.0
2022-08-10T02:16:36.000Z,12.222222222222221
2022-08-10T02:16:36.000Z,12.222222222222221
2022-08-10T02:17:11.000Z,12.222222222222221
2022-08-10T02:17:11.000Z,12.222222222222221
2022-08-10T02:17:43.000Z,12.111111111111109
2022-08-10T02:18:26.000Z,12.0
2022-08-10T02:18:56.000Z,12.0
2022-08-10T02:19:18.000Z,12.111111111111109
2022-08-10T02:19:46.000Z,12.111111111111109
2022-08-10T02:20:08.000Z,12.0
2022-08-10T02:20:36.000Z,12.0
2022-08-10T02:21:11.000Z,12.0
2022-08-10T02:21:41.000Z,11.88888888888889
2022-08-10T02:22:11.000Z,11.88888888888889
2022-08-10T02:22:46.000Z,11.88888888888889
2022-08-10T02:23:17.000Z,12.0
2022-08-10T02:23:17.000Z,12.0
2022-08-10T02:23:44.000Z,12.0
2022-08-10T02:23:44.000Z,12.0
2022-08-10T02:24:06.000Z,11.88888888888889
2022-08-10T02:24:06.000Z,11.88888888888889
2022-08-10T02:24:36.000Z,11.88888888888889
2022-08-10T02:24:36.000Z,11.88888888888889
2022-08-10T02:25:12.000Z,11.88888888888889
2022-08-10T02:25:12.000Z,11.88888888888889
2022-08-10T02:25:41.000Z,11.777777777777779
2022-08-10T02:26:11.000Z,12.0
2022-08-10T02:26:46.000Z,12.0
2022-08-10T02:27:26.000Z,11.88888888888889
2022-08-10T02:27:52.000Z,11.88888888888889
2022-08-10T02:28:18.000Z,11.777777777777779
2022-08-10T02:29:01.000Z,12.0
2022-08-10T02:29:26.000Z,12.0
2022-08-10T02:29:47.000Z,12.0
2022-08-10T02:30:11.000Z,12.0
2022-08-10T02:30:46.000Z,12.0
2022-08-10T02:31:16.000Z,11.88888888888889
2022-08-10T02:31:44.000Z,11.88888888888889
2022-08-10T02:32:06.000Z,11.88888888888889
2022-08-10T02:32:36.000Z,11.777777777777779
2022-08-10T02:33:11.000Z,11.777777777777779
2022-08-10T02:33:41.000Z,11.777777777777779
2022-08-10T02:34:11.000Z,11.777777777777779
2022-08-10T02:34:46.000Z,11.722222222222221
2022-08-10T02:35:16.000Z,11.722222222222221
2022-08-10T02:35:51.000Z,11.88888888888889
2022-08-10T02:36:21.000Z,11.88888888888889
2022-08-10T02:36:46.000Z,11.88888888888889
2022-08-10T02:37:11.000Z,11.88888888888889
2022-08-10T02:37:38.000Z,11.88888888888889
2022-08-10T02:38:02.000Z,11.88888888888889
2022-08-10T02:38:29.000Z,11.777777777777779
2022-08-10T02:38:29.000Z,11.777777777777779
2022-08-10T02:38:29.000Z,11.777777777777779
2022-08-10T02:38:29.000Z,11.777777777777779
2022-08-10T02:38:29.000Z,11.777777777777779
2022-08-10T02:38:56.000Z,11.777777777777779
2022-08-10T02:38:56.000Z,11.777777777777779
2022-08-10T02:38:56.000Z,11.777777777777779
2022-08-10T02:38:56.000Z,11.777777777777779
2022-08-10T02:38:56.000Z,11.777777777777779
2022-08-10T02:39:19.000Z,11.777777777777779
2022-08-10T02:39:19.000Z,11.777777777777779
2022-08-10T02:39:19.000Z,11.777777777777779
2022-08-10T02:39:19.000Z,11.777777777777779
2022-08-10T02:39:19.000Z,11.777777777777779
2022-08-10T02:39:44.000Z,11.722222222222221
2022-08-10T02:39:44.000Z,11.722222222222221
2022-08-10T02:39:44.000Z,11.722222222222221
2022-08-10T02:39:44.000Z,11.722222222222221
2022-08-10T02:39:44.000Z,11.722222222222221
2022-08-10T02:40:06.000Z,11.722222222222221
2022-08-10T02:40:06.000Z,11.722222222222221
2022-08-10T02:40:06.000Z,11.722222222222221
2022-08-10T02:40:06.000Z,11.722222222222221
2022-08-10T02:40:06.000Z,11.722222222222221
2022-08-10T02:40:37.000Z,11.777777777777779
2022-08-10T02:40:37.000Z,11.777777777777779
2022-08-10T02:40:37.000Z,11.777777777777779
2022-08-10T02:40:37.000Z,11.777777777777779
2022-08-10T02:41:06.000Z,11.777777777777779
2022-08-10T02:41:06.000Z,11.777777777777779
2022-08-10T02:41:06.000Z,11.777777777777779
2022-08-10T02:41:41.000Z,11.777777777777779
2022-08-10T02:41:41.000Z,11.777777777777779
2022-08-10T02:42:11.000Z,11.777777777777779
2022-08-10T02:42:46.000Z,11.777777777777779
2022-08-10T02:42:46.000Z,11.777777777777779
2022-08-10T02:43:16.000Z,11.722222222222221
2022-08-10T02:43:16.000Z,11.722222222222221
2022-08-10T02:43:44.000Z,11.722222222222221
2022-08-10T02:43:44.000Z,11.722222222222221
2022-08-10T02:44:06.000Z,11.722222222222221
2022-08-10T02:44:06.000Z,11.722222222222221
2022-08-10T02:44:36.000Z,11.722222222222221
2022-08-10T02:44:36.000Z,11.722222222222221
2022-08-10T02:45:07.000Z,11.722222222222221
2022-08-10T02:45:41.000Z,11.722222222222221
2022-08-10T02:46:11.000Z,11.722222222222221
2022-08-10T02:46:46.000Z,11.722222222222221
2022-08-10T02:47:16.000Z,11.722222222222221
2022-08-10T02:47:44.000Z,11.722222222222221
2022-08-10T02:48:19.000Z,11.61111111111111
2022-08-10T02:48:44.000Z,11.61111111111111
2022-08-10T02:49:11.000Z,11.61111111111111
2022-08-10T02:49:41.000Z,11.61111111111111
2022-08-10T02:50:16.000Z,11.61111111111111
2022-08-10T02:50:46.000Z,11.777777777777779
2022-08-10T02:51:16.000Z,11.777777777777779
2022-08-10T02:51:44.000Z,11.777777777777779
2022-08-10T02:52:06.000Z,11.777777777777779
2022-08-10T02:52:36.000Z,11.777777777777779
2022-08-10T02:53:11.000Z,11.777777777777779
2022-08-10T02:53:41.000Z,11.777777777777779
2022-08-10T02:54:11.000Z,11.777777777777779
2022-08-10T02:54:26.000Z,11.777777777777779
2022-08-10T02:54:46.000Z,11.777777777777779
2022-08-10T02:55:16.000Z,11.777777777777779
2022-08-10T02:55:44.000Z,11.777777777777779
2022-08-10T02:56:06.000Z,11.777777777777779
2022-08-10T02:56:36.000Z,11.722222222222221
2022-08-10T02:57:11.000Z,11.722222222222221
2022-08-10T02:57:41.000Z,11.722222222222221
2022-08-10T02:58:11.000Z,11.722222222222221
2022-08-10T02:58:46.000Z,11.722222222222221
2022-08-10T02:59:26.000Z,11.722222222222221
2022-08-10T02:59:44.000Z,11.61111111111111
2022-08-10T03:00:06.000Z,11.61111111111111
2022-08-10T03:00:36.000Z,11.61111111111111
2022-08-10T03:01:11.000Z,11.61111111111111
2022-08-10T03:01:42.000Z,11.61111111111111
2022-08-10T03:02:11.000Z,11.500000000000002
2022-08-10T03:02:46.000Z,11.500000000000002
2022-08-10T03:02:46.000Z,11.500000000000002
2022-08-10T03:03:16.000Z,11.500000000000002
2022-08-10T03:03:16.000Z,11.500000000000002
2022-08-10T03:03:44.000Z,11.722222222222221
2022-08-10T03:03:44.000Z,11.722222222222221
2022-08-10T03:04:06.000Z,11.722222222222221
2022-08-10T03:04:06.000Z,11.722222222222221
2022-08-10T03:04:36.000Z,11.722222222222221
2022-08-10T03:04:36.000Z,11.722222222222221
2022-08-10T03:04:52.000Z,11.722222222222221
2022-08-10T03:05:26.000Z,11.777777777777779
2022-08-10T03:05:26.000Z,11.777777777777779
2022-08-10T03:05:48.000Z,11.777777777777779
2022-08-10T03:05:48.000Z,11.777777777777779
2022-08-10T03:06:11.000Z,11.777777777777779
2022-08-10T03:06:11.000Z,11.777777777777779
2022-08-10T03:06:46.000Z,11.777777777777779
2022-08-10T03:06:46.000Z,11.777777777777779
2022-08-10T03:07:26.000Z,11.777777777777779
2022-08-10T03:07:26.000Z,11.777777777777779
2022-08-10T03:07:44.000Z,11.777777777777779
2022-08-10T03:08:19.000Z,11.777777777777779
2022-08-10T03:08:44.000Z,11.777777777777779
2022-08-10T03:09:11.000Z,11.777777777777779
2022-08-10T03:09:41.000Z,11.777777777777779
2022-08-10T03:10:11.000Z,11.61111111111111
2022-08-10T03:10:46.000Z,11.61111111111111
2022-08-10T03:11:16.000Z,11.722222222222221
2022-08-10T03:11:44.000Z,11.722222222222221
2022-08-10T03:12:06.000Z,11.722222222222221
2022-08-10T03:12:36.000Z,11.722222222222221
2022-08-10T03:13:11.000Z,11.722222222222221
2022-08-10T03:13:41.000Z,11.722222222222221
2022-08-10T03:14:11.000Z,11.61111111111111
2022-08-10T03:14:56.000Z,11.722222222222221
2022-08-10T03:15:18.000Z,11.722222222222221
2022-08-10T03:15:46.000Z,11.722222222222221
2022-08-10T03:16:08.000Z,11.722222222222221
2022-08-10T03:16:36.000Z,11.722222222222221
2022-08-10T03:17:11.000Z,11.777777777777779
2022-08-10T03:17:41.000Z,11.722222222222221
2022-08-10T03:18:26.000Z,11.777777777777779
2022-08-10T03:18:26.000Z,11.777777777777779
2022-08-10T03:18:46.000Z,11.777777777777779
2022-08-10T03:18:46.000Z,11.777777777777779
2022-08-10T03:19:16.000Z,11.777777777777779
2022-08-10T03:19:16.000Z,11.777777777777779
2022-08-10T03:19:44.000Z,11.777777777777779
2022-08-10T03:19:44.000Z,11.777777777777779
2022-08-10T03:20:06.000Z,11.777777777777779
2022-08-10T03:20:06.000Z,11.777777777777779
2022-08-10T03:20:36.000Z,11.777777777777779
2022-08-10T03:21:11.000Z,11.777777777777779
2022-08-10T03:21:41.000Z,11.777777777777779
2022-08-10T03:22:11.000Z,11.777777777777779
2022-08-10T03:22:46.000Z,11.88888888888889
2022-08-10T03:23:19.000Z,11.88888888888889
2022-08-10T03:23:44.000Z,11.722222222222221
2022-08-10T03:24:02.000Z,11.88888888888889
2022-08-10T03:24:29.000Z,11.722222222222221
2022-08-10T03:25:07.000Z,11.722222222222221
2022-08-10T03:25:51.000Z,11.777777777777779
2022-08-10T03:26:21.000Z,11.722222222222221
2022-08-10T03:26:46.000Z,11.722222222222221
2022-08-10T03:27:16.000Z,11.722222222222221
2022-08-10T03:27:44.000Z,11.722222222222221
2022-08-10T03:28:06.000Z,11.722222222222221
2022-08-10T03:28:36.000Z,11.722222222222221
2022-08-10T03:29:11.000Z,11.777777777777779
2022-08-10T03:29:41.000Z,11.777777777777779
2022-08-10T03:30:11.000Z,11.777777777777779
2022-08-10T03:30:46.000Z,11.61111111111111
2022-08-10T03:31:16.000Z,11.722222222222221
2022-08-10T03:31:44.000Z,11.722222222222221
2022-08-10T03:32:16.000Z,11.722222222222221
2022-08-10T03:32:36.000Z,11.722222222222221
2022-08-10T03:32:52.000Z,11.722222222222221
2022-08-10T03:33:22.000Z,11.88888888888889
2022-08-10T03:33:51.000Z,11.88888888888889
2022-08-10T03:34:13.000Z,11.88888888888889
2022-08-10T03:34:42.000Z,11.88888888888889
2022-08-10T03:35:11.000Z,11.88888888888889
2022-08-10T03:35:36.000Z,11.777777777777779
2022-08-10T03:36:06.000Z,11.777777777777779
2022-08-10T03:36:37.000Z,11.777777777777779
2022-08-10T03:37:11.000Z,11.777777777777779
2022-08-10T03:37:41.000Z,11.777777777777779
2022-08-10T03:38:11.000Z,11.777777777777779
2022-08-10T03:38:26.000Z,11.777777777777779
2022-08-10T03:38:46.000Z,11.777777777777779
2022-08-10T03:39:16.000Z,11.777777777777779
2022-08-10T03:39:44.000Z,11.777777777777779
2022-08-10T03:40:06.000Z,11.777777777777779
2022-08-10T03:40:36.000Z,11.777777777777779
2022-08-10T03:41:11.000Z,11.777777777777779
2022-08-10T03:41:41.000Z,11.777777777777779
2022-08-10T03:42:11.000Z,11.777777777777779
2022-08-10T03:42:46.000Z,11.777777777777779
2022-08-10T03:43:16.000Z,11.777777777777779
2022-08-10T03:43:44.000Z,11.777777777777779
2022-08-10T03:44:06.000Z,11.777777777777779
2022-08-10T03:44:36.000Z,11.777777777777779
2022-08-10T03:45:11.000Z,11.777777777777779
2022-08-10T03:45:41.000Z,11.777777777777779
2022-08-10T03:46:11.000Z,11.722222222222221
2022-08-10T03:46:26.000Z,11.722222222222221
2022-08-10T03:46:47.000Z,11.722222222222221
2022-08-10T03:47:16.000Z,11.722222222222221
2022-08-10T03:47:44.000Z,11.722222222222221
2022-08-10T03:48:06.000Z,11.777777777777779
2022-08-10T03:48:46.000Z,11.777777777777779
2022-08-10T03:49:11.000Z,11.777777777777779
2022-08-10T03:49:41.000Z,11.777777777777779
2022-08-10T03:50:16.000Z,11.88888888888889
2022-08-10T03:50:46.000Z,11.88888888888889